createdAt,value
2018-02-05T00:01:53.058Z,2.20
2018-02-05T00:04:20.634Z,2.20
2018-02-05T00:06:48.146Z,2.20
2018-02-05T00:09:15.747Z,2.20
2018-02-05T00:11:43.275Z,2.20
2018-02-05T00:14:10.888Z,2.20
2018-02-05T00:16:38.508Z,2.20
2018-02-05T00:19:06.051Z,2.20
2018-02-05T00:21:33.619Z,2.10
2018-02-05T00:24:01.143Z,2.10
2018-02-05T00:26:29.114Z,2.20
2018-02-05T00:28:57.079Z,2.20
2018-02-05T00:31:25.075Z,2.20
2018-02-05T00:33:52.582Z,2.20
2018-02-05T00:36:20.115Z,2.20
2018-02-05T00:38:47.637Z,2.10
2018-02-05T00:41:16.088Z,2.10
2018-02-05T00:43:43.662Z,2.00
2018-02-05T00:46:11.669Z,2.00
2018-02-05T00:48:39.287Z,2.00
2018-02-05T00:51:07.263Z,2.00
2018-02-05T00:53:34.823Z,2.00
2018-02-05T00:56:02.444Z,1.90
2018-02-05T00:58:30.010Z,1.90
2018-02-05T01:00:57.581Z,1.90
2018-02-05T01:03:25.139Z,2.00
2018-02-05T01:05:53.108Z,2.00
2018-02-05T01:08:21.108Z,2.00
2018-02-05T01:10:48.728Z,2.00
2018-02-05T01:13:16.297Z,2.00
2018-02-05T01:15:43.850Z,1.90
2018-02-05T01:18:11.383Z,1.90
2018-02-05T01:20:39.009Z,1.90
2018-02-05T01:23:06.568Z,1.90
2018-02-05T01:25:34.151Z,1.90
2018-02-05T01:28:01.762Z,1.90
2018-02-05T01:30:29.723Z,1.80
2018-02-05T01:32:57.670Z,1.80
2018-02-05T01:35:25.221Z,1.80
2018-02-05T01:37:52.821Z,1.70
2018-02-05T01:40:20.396Z,1.70
2018-02-05T01:42:48.022Z,1.70
2018-02-05T01:45:16.027Z,1.70
2018-02-05T01:47:43.634Z,1.70
2018-02-05T01:50:11.214Z,1.70
2018-02-05T01:52:39.162Z,1.60
2018-02-05T01:55:06.743Z,1.60
2018-02-05T01:57:34.707Z,1.60
2018-02-05T02:00:02.657Z,1.60
2018-02-05T02:02:30.242Z,1.60
2018-02-05T02:04:57.763Z,1.60
2018-02-05T02:07:25.299Z,1.50
2018-02-05T02:09:52.872Z,1.50
2018-02-05T02:12:20.411Z,1.50
2018-02-05T02:14:47.942Z,1.40
2018-02-05T02:17:15.495Z,1.40
2018-02-05T02:19:43.115Z,1.30
2018-02-05T02:22:10.660Z,1.30
2018-02-05T02:24:38.245Z,1.30
2018-02-05T02:27:05.799Z,1.20
2018-02-05T02:29:33.323Z,1.30
2018-02-05T02:32:00.915Z,1.30
2018-02-05T02:34:28.531Z,1.30
2018-02-05T02:36:56.171Z,1.30
2018-02-05T02:39:23.728Z,1.20
2018-02-05T02:41:51.344Z,1.10
2018-02-05T02:44:18.959Z,1.10
2018-02-05T02:46:46.532Z,1.00
2018-02-05T02:49:14.064Z,1.00
2018-02-05T02:51:42.282Z,1.00
2018-02-05T02:54:09.847Z,1.00
2018-02-05T02:56:37.485Z,1.00
2018-02-05T02:59:05.052Z,1.00
2018-02-05T03:01:32.597Z,1.00
2018-02-05T03:04:00.178Z,1.00
2018-02-05T03:06:27.721Z,1.00
2018-02-05T03:08:55.331Z,1.00
2018-02-05T03:11:23.299Z,1.00
2018-02-05T03:13:51.276Z,0.90
2018-02-05T03:16:19.250Z,0.90
2018-02-05T03:18:46.871Z,0.90
2018-02-05T03:21:14.429Z,0.80
2018-02-05T03:23:42.010Z,0.80
2018-02-05T03:26:09.998Z,0.80
2018-02-05T03:28:37.542Z,0.80
2018-02-05T03:31:05.170Z,0.80
2018-02-05T03:33:32.776Z,0.70
2018-02-05T03:36:00.359Z,0.70
2018-02-05T03:38:27.935Z,0.80
2018-02-05T03:40:55.554Z,0.80
2018-02-05T03:43:23.110Z,0.80
2018-02-05T03:45:50.709Z,0.70
2018-02-05T03:48:18.318Z,0.70
2018-02-05T03:50:46.261Z,0.60
2018-02-05T03:53:13.819Z,0.60
2018-02-05T03:55:41.423Z,0.50
2018-02-05T03:58:09.004Z,0.50
2018-02-05T04:00:37.357Z,0.50
2018-02-05T04:03:04.936Z,0.50
2018-02-05T04:05:32.591Z,0.50
2018-02-05T04:08:00.158Z,0.50
2018-02-05T04:10:27.718Z,0.50
2018-02-05T04:12:55.367Z,0.50
2018-02-05T04:15:22.958Z,0.50
2018-02-05T04:17:50.571Z,0.50
2018-02-05T04:20:18.173Z,0.50
2018-02-05T04:22:45.821Z,0.50
2018-02-05T04:25:13.454Z,0.50
2018-02-05T04:27:41.078Z,0.40
2018-02-05T04:30:09.032Z,0.40
2018-02-05T04:32:36.564Z,0.40
2018-02-05T04:35:04.194Z,0.40
2018-02-05T04:37:31.711Z,0.40
2018-02-05T04:39:59.326Z,0.50
2018-02-05T04:42:26.939Z,0.50
2018-02-05T04:44:54.887Z,0.40
2018-02-05T04:47:22.440Z,0.40
2018-02-05T04:49:50.090Z,0.40
2018-02-05T04:52:17.613Z,0.50
2018-02-05T04:54:45.173Z,0.40
2018-02-05T04:57:12.707Z,0.50
2018-02-05T04:59:40.222Z,0.50
2018-02-05T05:02:07.860Z,0.50
2018-02-05T05:04:35.481Z,0.50
2018-02-05T05:07:03.442Z,0.50
2018-02-05T05:09:31.460Z,0.60
2018-02-05T05:11:59.015Z,0.60
2018-02-05T05:14:26.572Z,0.60
2018-02-05T05:16:54.132Z,0.50
2018-02-05T05:19:21.672Z,0.50
2018-02-05T05:21:49.293Z,0.50
2018-02-05T05:24:16.810Z,0.50
2018-02-05T05:26:44.323Z,0.50
2018-02-05T05:29:12.331Z,0.40
2018-02-05T05:31:39.907Z,0.40
2018-02-05T05:34:07.553Z,0.40
2018-02-05T05:36:35.166Z,0.40
2018-02-05T05:39:02.802Z,0.40
2018-02-05T05:41:30.359Z,0.50
2018-02-05T05:43:57.958Z,0.50
2018-02-05T05:46:25.985Z,0.70
2018-02-05T05:48:53.588Z,0.70
2018-02-05T05:51:21.553Z,0.80
2018-02-05T05:53:49.131Z,0.80
2018-02-05T05:56:16.744Z,0.80
2018-02-05T05:58:44.289Z,0.90
2018-02-05T06:01:11.819Z,0.90
2018-02-05T06:03:39.415Z,0.90
2018-02-05T06:06:07.044Z,0.90
2018-02-05T06:08:34.572Z,0.90
2018-02-05T06:11:02.138Z,0.90
2018-02-05T06:13:29.747Z,0.90
2018-02-05T06:15:57.308Z,0.90
2018-02-05T06:18:24.830Z,0.90
2018-02-05T06:20:52.400Z,1.00
2018-02-05T06:23:19.944Z,1.00
2018-02-05T06:25:47.466Z,1.00
2018-02-05T06:28:15.502Z,1.10
2018-02-05T06:30:43.131Z,1.00
2018-02-05T06:33:10.759Z,1.00
2018-02-05T06:35:38.551Z,0.90
2018-02-05T06:38:06.114Z,0.90
2018-02-05T06:40:33.665Z,0.90
2018-02-05T06:43:01.308Z,1.00
2018-02-05T06:45:28.911Z,1.00
2018-02-05T06:47:56.560Z,1.10
2018-02-05T06:50:35.822Z,1.00
2018-02-05T06:53:15.119Z,0.90
2018-02-05T06:55:47.688Z,0.90
2018-02-05T06:58:15.254Z,0.90
2018-02-05T07:00:42.790Z,0.80
2018-02-05T07:03:10.349Z,0.70
2018-02-05T07:05:37.914Z,0.70
2018-02-05T07:08:05.538Z,0.80
2018-02-05T07:10:33.119Z,0.90
2018-02-05T07:13:00.662Z,0.90
2018-02-05T07:15:28.701Z,0.80
2018-02-05T07:17:56.219Z,0.90
2018-02-05T07:20:23.771Z,0.80
2018-02-05T07:22:51.347Z,0.90
2018-02-05T07:25:18.908Z,0.90
2018-02-05T07:30:50.163Z,0.80
2018-02-05T07:33:17.815Z,0.80
2018-02-05T07:35:45.439Z,0.70
2018-02-05T07:38:13.429Z,0.70
2018-02-05T07:40:40.979Z,0.70
2018-02-05T07:43:08.937Z,0.70
2018-02-05T07:45:37.784Z,0.80
2018-02-05T07:48:05.505Z,0.80
2018-02-05T07:50:33.068Z,0.80
2018-02-05T07:53:00.639Z,0.70
2018-02-05T07:55:28.294Z,0.80
2018-02-05T07:57:55.819Z,0.80
2018-02-05T08:00:23.403Z,0.80
2018-02-05T08:02:50.949Z,0.80
2018-02-05T08:05:18.919Z,1.00
2018-02-05T08:07:46.556Z,1.00
2018-02-05T08:10:14.085Z,0.90
2018-02-05T08:12:41.609Z,0.90
2018-02-05T08:15:09.173Z,1.00
2018-02-05T08:17:36.709Z,1.00
2018-02-05T08:20:04.717Z,1.00
2018-02-05T08:22:32.387Z,1.00
2018-02-05T08:24:59.932Z,1.00
2018-02-05T08:27:27.601Z,1.00
2018-02-05T08:29:55.177Z,0.90
2018-02-05T08:32:22.818Z,0.90
2018-02-05T08:34:50.326Z,1.00
2018-02-05T08:37:18.243Z,1.10
2018-02-05T08:39:45.795Z,1.10
2018-02-05T08:42:13.418Z,1.10
2018-02-05T08:44:41.370Z,1.20
2018-02-05T08:47:08.947Z,1.20
2018-02-05T08:49:36.567Z,1.20
2018-02-05T08:52:04.142Z,1.20
2018-02-05T08:54:31.666Z,1.20
2018-02-05T08:56:59.273Z,1.30
2018-02-05T08:59:27.250Z,1.30
2018-02-05T09:01:55.758Z,1.30
2018-02-05T09:04:23.365Z,1.20
2018-02-05T09:06:50.894Z,1.20
2018-02-05T09:09:18.455Z,1.20
2018-02-05T09:11:46.019Z,1.30
2018-02-05T09:14:13.657Z,1.20
2018-02-05T09:16:41.188Z,1.20
2018-02-05T09:19:08.787Z,1.30
2018-02-05T09:21:36.319Z,1.20
2018-02-05T09:24:03.858Z,1.20
2018-02-05T09:26:31.381Z,1.20
2018-02-05T09:28:58.951Z,1.20
2018-02-05T09:31:26.923Z,1.30
2018-02-05T09:33:54.905Z,1.40
2018-02-05T09:36:22.391Z,1.50
2018-02-05T09:38:49.939Z,1.60
2018-02-05T09:41:17.511Z,1.60
2018-02-05T09:43:45.257Z,1.70
2018-02-05T09:46:12.987Z,1.80
2018-02-05T09:48:42.585Z,1.80
2018-02-05T09:51:10.219Z,1.80
2018-02-05T09:53:37.846Z,1.80
2018-02-05T09:56:05.412Z,1.80
2018-02-05T09:58:32.915Z,1.90
2018-02-05T10:01:00.510Z,1.90
2018-02-05T10:03:28.471Z,1.90
2018-02-05T10:05:56.470Z,1.90
2018-02-05T10:08:24.008Z,1.90
2018-02-05T10:10:51.550Z,1.70
2018-02-05T10:13:19.908Z,1.60
2018-02-05T10:15:47.559Z,1.50
2018-02-05T10:18:15.087Z,1.60
2018-02-05T10:20:42.681Z,1.70
2018-02-05T10:23:10.196Z,1.60
2018-02-05T10:25:37.727Z,1.60
2018-02-05T10:28:05.649Z,1.70
2018-02-05T10:30:33.196Z,1.70
2018-02-05T10:33:00.775Z,1.80
2018-02-05T10:35:28.366Z,1.80
2018-02-05T10:37:56.288Z,2.20
2018-02-05T10:40:23.860Z,2.20
2018-02-05T10:42:51.361Z,2.30
2018-02-05T10:45:18.927Z,2.30
2018-02-05T10:47:46.491Z,2.30
2018-02-05T10:50:14.052Z,2.50
2018-02-05T10:52:41.687Z,2.60
2018-02-05T10:55:09.714Z,2.60
2018-02-05T10:57:37.315Z,2.60
2018-02-05T11:00:04.987Z,2.70
2018-02-05T11:02:32.630Z,2.80
2018-02-05T11:05:00.612Z,2.50
2018-02-05T11:07:28.183Z,2.50
2018-02-05T11:09:55.763Z,2.50
2018-02-05T11:12:23.383Z,2.50
2018-02-05T11:14:50.958Z,2.50
2018-02-05T11:17:18.534Z,2.40
2018-02-05T11:19:46.079Z,2.30
2018-02-05T11:22:13.683Z,2.30
2018-02-05T11:24:41.292Z,2.40
2018-02-05T11:27:08.802Z,2.50
2018-02-05T11:29:36.394Z,2.50
2018-02-05T11:32:03.982Z,2.60
2018-02-05T11:34:31.734Z,2.50
2018-02-05T11:36:59.313Z,2.60
2018-02-05T11:39:27.248Z,2.60
2018-02-05T11:41:54.775Z,2.60
2018-02-05T11:44:22.355Z,2.60
2018-02-05T11:46:50.040Z,2.80
2018-02-05T11:49:17.571Z,2.80
2018-02-05T11:51:45.547Z,2.90
2018-02-05T11:54:13.177Z,2.90
2018-02-05T11:56:40.789Z,2.80
2018-02-05T11:59:08.318Z,2.80
2018-02-05T12:01:36.277Z,2.90
2018-02-05T12:04:04.234Z,2.90
2018-02-05T12:06:31.775Z,2.90
2018-02-05T12:08:59.430Z,2.80
2018-02-05T12:11:27.182Z,2.80
2018-02-05T12:13:54.736Z,2.80
2018-02-05T12:16:23.298Z,2.80
2018-02-05T12:18:50.822Z,2.80
2018-02-05T12:21:18.448Z,2.90
2018-02-05T12:23:46.007Z,2.80
2018-02-05T12:26:13.532Z,2.80
2018-02-05T12:28:41.129Z,2.80
2018-02-05T12:31:08.713Z,2.80
2018-02-05T12:33:36.370Z,2.90
2018-02-05T12:36:03.970Z,3.00
2018-02-05T12:38:31.627Z,3.00
2018-02-05T12:40:59.194Z,3.20
2018-02-05T12:43:26.771Z,3.30
2018-02-05T12:45:54.408Z,3.40
2018-02-05T12:48:22.006Z,3.20
2018-02-05T12:50:49.619Z,3.10
2018-02-05T12:53:17.231Z,3.10
2018-02-05T12:55:44.839Z,3.00
2018-02-05T12:58:12.401Z,3.00
2018-02-05T13:00:45.556Z,2.80
2018-02-05T13:03:22.167Z,2.90
2018-02-05T13:08:56.302Z,2.90
2018-02-05T13:11:23.874Z,2.80
2018-02-05T13:13:51.455Z,2.90
2018-02-05T13:16:19.312Z,3.00
2018-02-05T13:18:47.142Z,2.90
2018-02-05T13:21:14.752Z,2.90
2018-02-05T13:23:42.371Z,3.00
2018-02-05T13:26:10.045Z,3.10
2018-02-05T13:28:37.743Z,3.00
2018-02-05T13:31:05.389Z,3.10
2018-02-05T13:33:32.916Z,2.90
2018-02-05T13:36:01.071Z,2.70
2018-02-05T13:38:28.660Z,2.80
2018-02-05T13:40:56.245Z,2.90
2018-02-05T13:43:23.879Z,3.00
2018-02-05T13:45:51.511Z,3.10
2018-02-05T13:48:19.157Z,3.20
2018-02-05T13:50:46.717Z,3.20
2018-02-05T13:53:14.345Z,3.30
2018-02-05T13:55:41.979Z,3.40
2018-02-05T13:58:10.310Z,3.30
2018-02-05T14:00:37.934Z,3.30
2018-02-05T14:03:05.565Z,3.20
2018-02-05T14:05:33.631Z,3.20
2018-02-05T14:08:01.300Z,3.10
2018-02-05T14:10:28.939Z,3.20
2018-02-05T14:12:56.519Z,3.10
2018-02-05T14:15:24.106Z,3.20
2018-02-05T14:17:51.803Z,3.30
2018-02-05T14:20:19.378Z,3.20
2018-02-05T14:22:47.003Z,3.30
2018-02-05T14:25:14.615Z,3.30
2018-02-05T14:27:45.183Z,3.30
2018-02-05T14:30:12.833Z,3.30
2018-02-05T14:32:41.352Z,3.30
2018-02-05T14:35:09.321Z,3.20
2018-02-05T14:37:36.943Z,3.20
2018-02-05T14:40:04.560Z,3.20
2018-02-05T14:42:32.184Z,3.10
2018-02-05T14:45:00.195Z,3.20
2018-02-05T14:47:27.751Z,3.20
2018-02-05T14:49:55.384Z,3.20
2018-02-05T14:52:22.959Z,3.20
2018-02-05T14:54:50.565Z,3.20
2018-02-05T14:57:18.208Z,3.20
2018-02-05T14:59:45.800Z,3.20
2018-02-05T15:02:13.387Z,3.10
2018-02-05T15:04:40.999Z,3.00
2018-02-05T15:07:08.576Z,3.00
2018-02-05T15:09:36.644Z,2.90
2018-02-05T15:12:04.292Z,2.90
2018-02-05T15:14:31.866Z,2.90
2018-02-05T15:16:59.465Z,3.00
2018-02-05T15:19:27.073Z,3.00
2018-02-05T15:21:54.711Z,3.00
2018-02-05T15:24:22.292Z,2.90
2018-02-05T15:26:49.927Z,2.80
2018-02-05T15:29:17.586Z,2.80
2018-02-05T15:31:45.301Z,2.80
2018-02-05T15:34:13.232Z,2.80
2018-02-05T15:36:40.844Z,2.80
2018-02-05T15:39:08.510Z,2.80
2018-02-05T15:41:36.132Z,2.80
2018-02-05T15:44:03.707Z,2.80
2018-02-05T15:46:31.265Z,2.80
2018-02-05T15:48:59.256Z,2.90
2018-02-05T15:51:26.850Z,2.90
2018-02-05T15:53:54.473Z,2.90
2018-02-05T15:56:22.070Z,2.80
2018-02-05T15:58:49.616Z,2.70
2018-02-05T16:01:17.255Z,2.70
2018-02-05T16:03:44.925Z,2.70
2018-02-05T16:06:12.566Z,2.60
2018-02-05T16:08:40.160Z,2.60
2018-02-05T16:11:07.721Z,2.60
2018-02-05T16:13:35.389Z,2.60
2018-02-05T16:16:03.311Z,2.50
2018-02-05T16:18:30.956Z,2.50
2018-02-05T16:20:58.570Z,2.50
2018-02-05T16:23:26.236Z,2.50
2018-02-05T16:25:53.886Z,2.50
2018-02-05T16:28:24.952Z,2.40
2018-02-05T16:30:52.560Z,2.40
2018-02-05T16:33:20.138Z,2.30
2018-02-05T16:35:47.722Z,2.20
2018-02-05T16:38:15.395Z,2.20
2018-02-05T16:40:43.026Z,2.20
2018-02-05T16:43:11.384Z,2.10
2018-02-05T16:45:39.026Z,2.10
2018-02-05T16:48:06.663Z,2.10
2018-02-05T16:50:35.204Z,2.10
2018-02-05T16:53:03.145Z,2.00
2018-02-05T16:55:30.740Z,2.00
2018-02-05T16:57:58.363Z,2.00
2018-02-05T17:00:25.918Z,1.90
2018-02-05T17:02:53.507Z,1.90
2018-02-05T17:05:21.118Z,1.80
2018-02-05T17:07:49.209Z,1.70
2018-02-05T17:10:16.727Z,1.80
2018-02-05T17:12:44.315Z,1.70
2018-02-05T17:15:12.585Z,1.70
2018-02-05T17:17:40.422Z,1.80
2018-02-05T17:20:08.067Z,1.70
2018-02-05T17:22:35.635Z,1.70
2018-02-05T17:25:03.206Z,1.70
2018-02-05T17:27:30.795Z,1.60
2018-02-05T17:29:58.352Z,1.60
2018-02-05T17:32:25.944Z,1.50
2018-02-05T17:34:53.584Z,1.50
2018-02-05T17:37:21.176Z,1.50
2018-02-05T17:39:48.748Z,1.40
2018-02-05T17:42:16.282Z,1.40
2018-02-05T17:44:44.793Z,1.50
2018-02-05T17:47:12.291Z,1.40
2018-02-05T17:49:39.833Z,1.40
2018-02-05T17:52:07.495Z,1.40
2018-02-05T17:54:35.045Z,1.40
2018-02-05T17:57:03.043Z,1.40
2018-02-05T17:59:30.631Z,1.40
2018-02-05T18:01:58.168Z,1.40
2018-02-05T18:04:28.671Z,1.40
2018-02-05T18:06:56.655Z,1.40
2018-02-05T18:09:24.239Z,1.40
2018-02-05T18:11:51.814Z,1.30
2018-02-05T18:14:19.383Z,1.30
2018-02-05T18:16:46.961Z,1.20
2018-02-05T18:19:14.527Z,1.20
2018-02-05T18:21:42.078Z,1.20
2018-02-05T18:24:09.647Z,1.10
2018-02-05T18:26:37.218Z,1.10
2018-02-05T18:29:04.814Z,1.10
2018-02-05T18:31:32.433Z,1.10
2018-02-05T18:34:00.098Z,1.00
2018-02-05T18:36:27.678Z,1.00
2018-02-05T18:38:55.264Z,1.00
2018-02-05T18:41:22.859Z,1.00
2018-02-05T18:43:50.485Z,1.00
2018-02-05T18:46:18.113Z,1.00
2018-02-05T18:48:45.722Z,1.00
2018-02-05T18:51:13.318Z,1.00
2018-02-05T18:53:40.827Z,1.00
2018-02-05T18:56:08.434Z,1.00
2018-02-05T18:58:36.051Z,0.90
2018-02-05T19:01:04.037Z,0.90
2018-02-05T19:03:31.616Z,0.90
2018-02-05T19:05:59.160Z,0.90
2018-02-05T19:08:26.752Z,0.90
2018-02-05T19:10:54.275Z,0.90
2018-02-05T19:13:21.846Z,1.00
2018-02-05T19:15:49.514Z,1.00
2018-02-05T19:18:17.134Z,1.00
2018-02-05T19:20:44.694Z,1.10
2018-02-05T19:23:12.296Z,1.10
2018-02-05T19:25:39.873Z,1.20
2018-02-05T19:28:07.482Z,1.10
2018-02-05T19:30:35.474Z,1.10
2018-02-05T19:33:03.094Z,1.10
2018-02-05T19:35:30.658Z,1.10
2018-02-05T19:37:58.557Z,1.10
2018-02-05T19:40:26.132Z,1.10
2018-02-05T19:42:53.727Z,1.10
2018-02-05T19:45:21.280Z,1.00
2018-02-05T19:47:48.855Z,1.00
2018-02-05T19:50:16.467Z,1.10
2018-02-05T19:52:44.018Z,1.10
2018-02-05T19:55:11.583Z,1.00
2018-02-05T19:57:39.187Z,1.00
2018-02-05T20:00:06.747Z,1.00
2018-02-05T20:02:34.342Z,1.00
2018-02-05T20:05:01.915Z,1.00
2018-02-05T20:07:29.520Z,1.00
2018-02-05T20:09:57.087Z,0.90
2018-02-05T20:12:24.678Z,1.00
2018-02-05T20:14:52.261Z,0.90
2018-02-05T20:17:19.799Z,0.90
2018-02-05T20:19:47.377Z,0.90
2018-02-05T20:22:15.015Z,0.90
2018-02-05T20:24:42.606Z,0.90
2018-02-05T20:27:10.111Z,0.80
2018-02-05T20:29:37.639Z,0.80
2018-02-05T20:32:05.195Z,0.80
2018-02-05T20:34:32.799Z,0.80
2018-02-05T20:37:00.366Z,0.80
2018-02-05T20:39:28.854Z,0.90
2018-02-05T20:41:56.442Z,0.90
2018-02-05T20:44:24.053Z,0.80
2018-02-05T20:46:51.596Z,0.80
2018-02-05T20:49:19.595Z,0.80
2018-02-05T20:51:47.159Z,0.80
2018-02-05T20:54:14.707Z,0.80
2018-02-05T20:56:42.260Z,0.80
2018-02-05T20:59:09.796Z,0.70
2018-02-05T21:01:37.756Z,0.70
2018-02-05T21:04:05.323Z,0.60
2018-02-05T21:06:32.921Z,0.60
2018-02-05T21:09:00.450Z,0.60
2018-02-05T21:11:28.056Z,0.60
2018-02-05T21:13:55.632Z,0.60
2018-02-05T21:16:23.226Z,0.50
2018-02-05T21:18:50.850Z,0.50
2018-02-05T21:21:18.349Z,0.40
2018-02-05T21:23:45.943Z,0.40
2018-02-05T21:26:13.539Z,0.40
2018-02-05T21:28:41.124Z,0.40
2018-02-05T21:31:08.684Z,0.40
2018-02-05T21:33:36.234Z,0.50
2018-02-05T21:36:03.861Z,0.50
2018-02-05T21:38:31.373Z,0.40
2018-02-05T21:40:58.893Z,0.40
2018-02-05T21:43:26.472Z,0.40
2018-02-05T21:45:54.168Z,0.40
2018-02-05T21:48:21.722Z,0.40
2018-02-05T21:50:49.279Z,0.40
2018-02-05T21:53:16.935Z,0.40
2018-02-05T21:55:44.502Z,0.50
2018-02-05T21:58:12.014Z,0.50
2018-02-05T22:00:39.995Z,0.40
2018-02-05T22:03:07.582Z,0.40
2018-02-05T22:05:35.111Z,0.40
2018-02-05T22:08:03.130Z,0.40
2018-02-05T22:10:30.753Z,0.40
2018-02-05T22:12:58.300Z,0.40
2018-02-05T22:15:25.859Z,0.40
2018-02-05T22:17:53.499Z,0.40
2018-02-05T22:20:21.386Z,0.40
2018-02-05T22:22:48.974Z,0.40
2018-02-05T22:25:16.581Z,0.40
2018-02-05T22:27:44.221Z,0.40
2018-02-05T22:30:12.309Z,0.40
2018-02-05T22:32:39.864Z,0.30
2018-02-05T22:35:07.462Z,0.30
2018-02-05T22:37:34.993Z,0.30
2018-02-05T22:40:02.982Z,0.20
2018-02-05T22:42:30.539Z,0.20
2018-02-05T22:44:58.107Z,0.20
2018-02-05T22:47:25.715Z,0.20
2018-02-05T22:49:53.319Z,0.20
2018-02-05T22:52:20.851Z,0.20
2018-02-05T22:54:48.520Z,0.10
2018-02-05T22:57:16.105Z,0.10
2018-02-05T22:59:43.689Z,0.10
2018-02-05T23:02:11.306Z,0.00
2018-02-05T23:04:38.849Z,0.00
2018-02-05T23:07:06.366Z,0.00
2018-02-05T23:09:33.973Z,0.00
2018-02-05T23:12:03.167Z,-0.10
2018-02-05T23:14:30.675Z,-0.10
2018-02-05T23:16:58.260Z,-0.10
2018-02-05T23:19:25.778Z,-0.10
2018-02-05T23:21:53.387Z,-0.10
2018-02-05T23:24:21.388Z,-0.10
2018-02-05T23:26:48.986Z,-0.10
2018-02-05T23:29:16.547Z,-0.10
2018-02-05T23:31:44.122Z,-0.10
2018-02-05T23:34:11.663Z,-0.10
2018-02-05T23:36:39.207Z,-0.20
2018-02-05T23:39:06.712Z,-0.20
2018-02-05T23:41:34.647Z,-0.10
2018-02-05T23:44:02.199Z,-0.10
2018-02-05T23:46:29.821Z,-0.20
2018-02-05T23:48:57.378Z,-0.20
2018-02-05T23:51:24.967Z,-0.20
2018-02-05T23:53:52.500Z,-0.20
2018-02-05T23:56:20.058Z,-0.20
2018-02-05T23:58:47.695Z,-0.20
